AirNav   Bose ProFlight Aviation Headset
 
 1050 users online  

KAMT Alexander Salamon Airport
West Union, Ohio, USA

GOING TO WEST UNION?


FAA INFORMATION EFFECTIVE 13 SEPTEMBER 2018

Location

FAA Identifier: AMT
Lat/Long: 38-51-05.3096N / 083-33-58.5404W
38-51.088493N / 083-33.975673W
38.8514749 / -83.5662612
(estimated)
Elevation: 896 ft. / 273.1 m (surveyed)
Variation: 04W (1985)
From city: 4 miles NW of WEST UNION, OH
Time zone: UTC -4 (UTC -5 during Standard Time)
Zip code: 45693

Airport Operations

Airport use: Open to the public
Activation date: 03/1972
Control tower: no
ARTCC: INDIANAPOLIS CENTER
FSS: DAYTON FLIGHT SERVICE STATION
NOTAMs facility: DAY (NOTAM-D service available)
Attendance: UNATTND
Wind indicator: lighted
Segmented circle: no
Lights: ACTVT MIRL RY 05/23; PAPI RY 23 & REIL RY 23 - CTAF.
Beacon: white-green (lighted land airport)
Operates sunset to sunrise.

Airport Communications

CTAF/UNICOM: 122.8
  • APCH/DEP SERVICE PROVIDED BY INDIANAPOLIS ARTCC ON FREQS 135.575/290.5 (PORTSMOUTH RCAG).

Nearby radio navigation aids

VOR radial/distance  VOR name  Freq  Var
YRKr299/30.2YORK VORTAC112.8005W
MXQr167/36.4MIDWEST VOR/DME112.9004W
FLMr075/36.9FALMOUTH VOR/DME117.0004W

 
NDB name  Hdg/Dist  Freq  Var  ID
WEST UNIONat field35904WAMT .- -- -
HILLSBORO188/20.027805WHOC .... --- -.-.
SPORTYS118/33.224504WPWF .--. .-- ..-.
WAVERLY243/35.138506WEOP . --- .--.

Airport Services

Parking: tiedowns

Runway Information

Runway 5/23

Dimensions: 3762 x 65 ft. / 1147 x 20 m
Surface: asphalt, in good condition
Runway edge lights: medium intensity
RUNWAY 5  RUNWAY 23
Latitude: 38-50.869902N38-51.307073N
Longitude: 083-34.256583W083-33.694735W
Elevation: 882.9 ft.896.0 ft.
Traffic pattern: leftleft
Runway heading: 049 magnetic, 045 true229 magnetic, 225 true
Markings: nonprecision, in good conditionnonprecision, in good condition
Visual slope indicator: 4-light PAPI on left (3.30 degrees glide path)
Runway end identifier lights: yesyes
Touchdown point: yes, no lightsyes, no lights
Obstructions: 6 ft. fence, 201 ft. from runway, 161 ft. right of centerline
R/W 05 +6' FENCE 0' TO 200' FM, 190'R, +10' BRUSH, 35' FM, 226'L
47 ft. trees, 1035 ft. from runway, 235 ft. left of centerline, 17:1 slope to clear
R/W 23 +6' FNECE 0' TO 200' FM, 190'L, +8' BRUSH 125' FM, 200'L

Airport Ownership and Management from official FAA records

Ownership: Publicly-owned
Owner: ADAMS CO ARPT AUTH
ADAMS CO. COURT HOUSE
WEST UNION, OH 45693
Phone 937-544-3286
Manager: RICK SETTY
3389 CROSS ROAD
WINCHESTER, OH 45697
Phone (937) 217-8742
ADDNL CTC: AMT_APT_MGR@ADAMSCOUNTYOH.GOV (937) 544-3286

Airport Operational Statistics

Aircraft based on the field: 11
Single engine airplanes: 10
Ultralights: 1
    
Aircraft operations: avg 100/week *
58% local general aviation
38% transient general aviation
4% air taxi
<1% military
* for 12-month period ending 17 September 2015

Additional Remarks

TWY MKD W/REFLECTORS

Instrument Procedures

NOTE: All procedures below are presented as PDF files. If you need a reader for these files, you should download the free Adobe Reader.

NOT FOR NAVIGATION. Please procure official charts for flight.
FAA instrument procedures published for use from 13 September 2018 at 0901Z to 11 October 2018 at 0900Z.

 
IAPs - Instrument Approach Procedures
RNAV (GPS) RWY 05 **CHANGED**   download (165KB)
RNAV (GPS) RWY 23 **CHANGED**   download (155KB)
NOTE: Special Take-Off Minimums/Departure Procedures apply   download (164KB)

Other nearby airports with instrument procedures:

KGEO - Brown County Airport (15 nm W)
KHOC - Highland County Airport (20 nm N)
KFGX - Fleming-Mason Airport (20 nm SW)
I69 - Clermont County Airport (33 nm NW)
KPMH - Greater Portsmouth Regional Airport (34 nm E)
 
Loc | Ops | Rwys | IFR | FBO | Links
Com | Nav | Svcs | Stats | Notes


 
Area around KAMT (Alexander Salamon Airport)
 
Road maps at: MapQuest Bing Google
 
Aerial photo
WARNING: Photo may not be current or correct
Aerial photo of KAMT (Alexander Salamon Airport)
Photo by David Dietz
Photo taken 09-Jul-2009
looking northeast.

Do you have a better or more recent aerial photo of Alexander Salamon Airport that you would like to share? If so, please send us your photo.

 
Sectional chart

 
Airport distance calculator
Flying to Alexander Salamon Airport? Find the distance to fly.

From to KAMT

Sunrise and sunset
Times for 22-Sep-2018
 Local
(UTC-4)
 Zulu
(UTC)
Morning civil twilight06:5610:56
Sunrise07:2311:23
Sunset19:3123:31
Evening civil twilight19:5823:58

Current date and time
Zulu (UTC)  22-Sep-2018 14:17:40
Local (UTC-4)  22-Sep-2018 10:17:40
 
METAR
KFGX 
20nm SW 
221355Z AUTO 07009KT 10SM BKN060 18/13 A3021 RMK AO2 T01750131
KI69 
33nm NW 
221357Z AUTO 06006KT 10SM OVC050 17/12 A3023 RMK AO2 T01710122
KPMH 
34nm E 
221355Z AUTO 02006KT 10SM OVC060 19/13 A3021 RMK AO2 T01850134
KILN 
37nm N 
221354Z AUTO 05010KT 10SM CLR 16/12 A3023 RMK AO2 SLP232 T01560122
KSYM 
38nm S 
221355Z AUTO VRB04KT 10SM BKN026 OVC038 19/14 A3020 RMK AO2
TAF
KILN 
37nm N 
221125Z 2212/2312 04010KT P6SM SCT035 OVC250 FM221700 05008KT P6SM BKN250 FM222300 07005KT P6SM SCT150 FM230200 06007KT P6SM SCT080
KSYM 
38nm S 
221132Z 2212/2312 04004KT P6SM OVC035 FM222100 04005KT P6SM VCSH OVC045 FM230600 VRB04KT 3SM BR OVC025
KLUK 
42nm W 
221125Z 2212/2312 02009KT P6SM BKN050 OVC200 FM221400 04010KT P6SM SCT050 BKN150 FM222000 06007KT P6SM BKN150 FM230200 06007KT P6SM BKN080
NOTAMs
Click for the latest NOTAMs
NOTAMs are issued by the DoD/FAA and will open in a separate window not controlled by AirNav.

 

 
 

Would you like to see your business listed on this page?

 If your business provides an interesting product or service to pilots, flight crews, aircraft, or users of the Alexander Salamon Airport, you should consider listing it here.  To start the listing process, click on the button below
 
Add a business
 

Other Pages about Alexander Salamon Airport

www.adamscountyoh.com/airport.asp
 
Update a link
 
Copyright © AirNav, LLC. All rights reserved. Privacy Policy  Contact